KORE

Orange Municipal Airport

Orange, Massachusetts, USA
METAR KORE 140652Z AUTO 00000KT 10SM OVC018 M02/M06 A3053 RMK AO2 SLP348 T10221061
Observed Flight Rules
Dec-14 @ 06:52 UTC (50 minutes ago) Marginal Visual Flight Rules
Visibility Clouds
10 miles
  • Overcast at 1,800' AGL
Temperatures Readings
Current -2°C / 28°F
Dewpoint -6°C / 21°F
Humidity 74%
Altimeter 30.53" Hg
Pressure 1034.8 hPa
Elevation 164
METAR KORE 140652Z AUTO 00000KT 10SM OVC018 M02/M06 A3053 RMK AO2 SLP348 T10221061
Observed Flight Rules
Dec-14 @ 06:52 UTC
(50 minutes ago)
MVFR
Clouds
  • Overcast at 1,800' AGL
Temperature Dewpoint
-2°C / 28°F -6°C / 21°F
Humidity Altimeter Pressure
74% 30.53" Hg 1034.8 hPa